sensor_id;sensor_type;location;lat;lon;timestamp;P1;durP1;ratioP1;P2;durP2;ratioP2
16975;SDS011;8604;48.148;-1.786;2022-09-02T00:00:55;9.77;;;7.13;;
16975;SDS011;8604;48.148;-1.786;2022-09-02T00:03:27;10.57;;;6.93;;
16975;SDS011;8604;48.148;-1.786;2022-09-02T00:05:57;8.10;;;6.07;;
16975;SDS011;8604;48.148;-1.786;2022-09-02T00:08:27;10.93;;;6.70;;
16975;SDS011;8604;48.148;-1.786;2022-09-02T00:10:58;10.07;;;6.40;;
16975;SDS011;8604;48.148;-1.786;2022-09-02T00:13:29;8.50;;;5.63;;
16975;SDS011;8604;48.148;-1.786;2022-09-02T00:15:59;7.17;;;5.30;;
16975;SDS011;8604;48.148;-1.786;2022-09-02T00:18:29;9.30;;;6.30;;
16975;SDS011;8604;48.148;-1.786;2022-09-02T00:20:58;7.53;;;6.13;;
16975;SDS011;8604;48.148;-1.786;2022-09-02T00:23:28;9.90;;;6.63;;
16975;SDS011;8604;48.148;-1.786;2022-09-02T00:25:58;9.80;;;7.87;;
16975;SDS011;8604;48.148;-1.786;2022-09-02T00:28:26;10.27;;;7.90;;
16975;SDS011;8604;48.148;-1.786;2022-09-02T00:30:55;11.00;;;7.13;;
16975;SDS011;8604;48.148;-1.786;2022-09-02T00:33:24;9.00;;;7.33;;
16975;SDS011;8604;48.148;-1.786;2022-09-02T00:35:56;10.50;;;7.70;;
16975;SDS011;8604;48.148;-1.786;2022-09-02T00:38:25;12.60;;;8.10;;
16975;SDS011;8604;48.148;-1.786;2022-09-02T00:40:55;10.40;;;8.20;;
16975;SDS011;8604;48.148;-1.786;2022-09-02T00:43:24;9.70;;;7.13;;
16975;SDS011;8604;48.148;-1.786;2022-09-02T00:46:04;11.70;;;8.67;;
16975;SDS011;8604;48.148;-1.786;2022-09-02T00:48:33;10.47;;;7.90;;
16975;SDS011;8604;48.148;-1.786;2022-09-02T00:51:06;11.23;;;8.60;;
16975;SDS011;8604;48.148;-1.786;2022-09-02T00:53:35;9.73;;;7.87;;
16975;SDS011;8604;48.148;-1.786;2022-09-02T00:56:07;13.70;;;8.83;;
16975;SDS011;8604;48.148;-1.786;2022-09-02T00:58:40;13.10;;;8.60;;
16975;SDS011;8604;48.148;-1.786;2022-09-02T01:01:10;10.63;;;8.37;;
16975;SDS011;8604;48.148;-1.786;2022-09-02T01:03:38;12.87;;;9.73;;
16975;SDS011;8604;48.148;-1.786;2022-09-02T01:06:07;10.03;;;8.70;;
16975;SDS011;8604;48.148;-1.786;2022-09-02T01:08:42;10.87;;;9.03;;
16975;SDS011;8604;48.148;-1.786;2022-09-02T01:11:16;11.00;;;8.50;;
16975;SDS011;8604;48.148;-1.786;2022-09-02T01:13:46;11.80;;;8.40;;
16975;SDS011;8604;48.148;-1.786;2022-09-02T01:16:16;10.73;;;8.00;;
16975;SDS011;8604;48.148;-1.786;2022-09-02T01:18:53;12.73;;;9.83;;
16975;SDS011;8604;48.148;-1.786;2022-09-02T01:21:24;11.53;;;8.90;;
16975;SDS011;8604;48.148;-1.786;2022-09-02T01:23:54;10.73;;;8.07;;
16975;SDS011;8604;48.148;-1.786;2022-09-02T01:26:23;11.13;;;9.07;;
16975;SDS011;8604;48.148;-1.786;2022-09-02T01:28:51;13.50;;;10.13;;
16975;SDS011;8604;48.148;-1.786;2022-09-02T01:31:19;15.13;;;11.30;;
16975;SDS011;8604;48.148;-1.786;2022-09-02T01:36:32;13.43;;;10.43;;
16975;SDS011;8604;48.148;-1.786;2022-09-02T01:39:05;12.43;;;10.30;;
16975;SDS011;8604;48.148;-1.786;2022-09-02T01:41:33;13.10;;;9.63;;
16975;SDS011;8604;48.148;-1.786;2022-09-02T01:44:02;11.73;;;10.33;;
16975;SDS011;8604;48.148;-1.786;2022-09-02T01:46:31;11.63;;;9.63;;
16975;SDS011;8604;48.148;-1.786;2022-09-02T01:49:01;12.93;;;10.50;;
16975;SDS011;8604;48.148;-1.786;2022-09-02T01:51:29;11.17;;;9.43;;
16975;SDS011;8604;48.148;-1.786;2022-09-02T01:53:59;11.87;;;10.57;;
16975;SDS011;8604;48.148;-1.786;2022-09-02T01:56:29;12.33;;;11.03;;
16975;SDS011;8604;48.148;-1.786;2022-09-02T01:58:59;13.60;;;12.00;;
16975;SDS011;8604;48.148;-1.786;2022-09-02T02:01:28;11.17;;;9.97;;
16975;SDS011;8604;48.148;-1.786;2022-09-02T02:03:58;13.20;;;10.33;;
16975;SDS011;8604;48.148;-1.786;2022-09-02T02:06:28;11.70;;;10.20;;
16975;SDS011;8604;48.148;-1.786;2022-09-02T02:08:56;13.73;;;10.73;;
16975;SDS011;8604;48.148;-1.786;2022-09-02T02:11:25;13.30;;;11.33;;
16975;SDS011;8604;48.148;-1.786;2022-09-02T02:13:58;12.83;;;11.23;;
16975;SDS011;8604;48.148;-1.786;2022-09-02T02:16:26;15.37;;;12.43;;
16975;SDS011;8604;48.148;-1.786;2022-09-02T02:18:55;17.50;;;14.20;;
16975;SDS011;8604;48.148;-1.786;2022-09-02T02:21:23;14.57;;;12.57;;
16975;SDS011;8604;48.148;-1.786;2022-09-02T02:23:52;20.27;;;14.13;;
16975;SDS011;8604;48.148;-1.786;2022-09-02T02:26:21;16.27;;;13.27;;
16975;SDS011;8604;48.148;-1.786;2022-09-02T02:28:49;16.80;;;14.37;;
16975;SDS011;8604;48.148;-1.786;2022-09-02T02:31:19;13.33;;;11.93;;
16975;SDS011;8604;48.148;-1.786;2022-09-02T02:33:50;12.43;;;11.13;;
16975;SDS011;8604;48.148;-1.786;2022-09-02T02:36:18;14.37;;;12.87;;
16975;SDS011;8604;48.148;-1.786;2022-09-02T02:38:47;13.20;;;11.83;;
16975;SDS011;8604;48.148;-1.786;2022-09-02T02:41:15;12.77;;;10.80;;
16975;SDS011;8604;48.148;-1.786;2022-09-02T02:43:44;11.07;;;9.97;;
16975;SDS011;8604;48.148;-1.786;2022-09-02T02:46:14;12.93;;;10.90;;
16975;SDS011;8604;48.148;-1.786;2022-09-02T02:48:59;17.77;;;12.17;;
16975;SDS011;8604;48.148;-1.786;2022-09-02T02:51:27;14.23;;;9.77;;
16975;SDS011;8604;48.148;-1.786;2022-09-02T02:53:56;12.83;;;11.07;;
16975;SDS011;8604;48.148;-1.786;2022-09-02T02:56:26;12.20;;;10.53;;
16975;SDS011;8604;48.148;-1.786;2022-09-02T02:58:56;11.07;;;9.67;;
16975;SDS011;8604;48.148;-1.786;2022-09-02T03:01:26;14.67;;;11.60;;
16975;SDS011;8604;48.148;-1.786;2022-09-02T03:03:55;14.97;;;11.50;;
16975;SDS011;8604;48.148;-1.786;2022-09-02T03:06:25;11.67;;;10.13;;
16975;SDS011;8604;48.148;-1.786;2022-09-02T03:08:55;11.57;;;10.30;;
16975;SDS011;8604;48.148;-1.786;2022-09-02T03:11:25;11.90;;;10.60;;
16975;SDS011;8604;48.148;-1.786;2022-09-02T03:13:55;12.17;;;10.43;;
16975;SDS011;8604;48.148;-1.786;2022-09-02T03:16:24;12.17;;;10.03;;
16975;SDS011;8604;48.148;-1.786;2022-09-02T03:18:53;10.93;;;9.43;;
16975;SDS011;8604;48.148;-1.786;2022-09-02T03:21:22;10.37;;;9.20;;
16975;SDS011;8604;48.148;-1.786;2022-09-02T03:23:51;9.93;;;8.93;;
16975;SDS011;8604;48.148;-1.786;2022-09-02T03:26:24;11.27;;;9.70;;
16975;SDS011;8604;48.148;-1.786;2022-09-02T03:28:53;10.33;;;9.07;;
16975;SDS011;8604;48.148;-1.786;2022-09-02T03:31:23;10.50;;;9.40;;
16975;SDS011;8604;48.148;-1.786;2022-09-02T03:33:54;11.70;;;9.70;;
16975;SDS011;8604;48.148;-1.786;2022-09-02T03:36:24;12.50;;;10.57;;
16975;SDS011;8604;48.148;-1.786;2022-09-02T03:38:56;14.53;;;12.73;;
16975;SDS011;8604;48.148;-1.786;2022-09-02T03:41:27;13.93;;;12.27;;
16975;SDS011;8604;48.148;-1.786;2022-09-02T03:43:57;15.43;;;12.97;;
16975;SDS011;8604;48.148;-1.786;2022-09-02T03:46:27;20.07;;;15.50;;
16975;SDS011;8604;48.148;-1.786;2022-09-02T03:48:56;15.87;;;14.13;;
16975;SDS011;8604;48.148;-1.786;2022-09-02T03:51:25;15.13;;;13.47;;
16975;SDS011;8604;48.148;-1.786;2022-09-02T03:53:54;16.57;;;12.70;;
16975;SDS011;8604;48.148;-1.786;2022-09-02T03:56:25;14.60;;;11.87;;
16975;SDS011;8604;48.148;-1.786;2022-09-02T03:58:55;14.60;;;12.27;;
16975;SDS011;8604;48.148;-1.786;2022-09-02T04:01:25;18.67;;;13.70;;
16975;SDS011;8604;48.148;-1.786;2022-09-02T04:04:02;17.93;;;14.00;;
16975;SDS011;8604;48.148;-1.786;2022-09-02T04:06:31;21.77;;;15.47;;
16975;SDS011;8604;48.148;-1.786;2022-09-02T04:09:01;18.57;;;14.60;;
16975;SDS011;8604;48.148;-1.786;2022-09-02T04:11:33;15.03;;;11.83;;
16975;SDS011;8604;48.148;-1.786;2022-09-02T04:14:02;17.80;;;13.00;;
16975;SDS011;8604;48.148;-1.786;2022-09-02T04:16:31;17.07;;;13.00;;
16975;SDS011;8604;48.148;-1.786;2022-09-02T04:19:05;17.40;;;14.50;;
16975;SDS011;8604;48.148;-1.786;2022-09-02T04:21:36;16.97;;;13.70;;
16975;SDS011;8604;48.148;-1.786;2022-09-02T04:24:07;13.77;;;12.33;;
16975;SDS011;8604;48.148;-1.786;2022-09-02T04:26:40;17.17;;;13.80;;
16975;SDS011;8604;48.148;-1.786;2022-09-02T04:29:12;19.03;;;13.90;;
16975;SDS011;8604;48.148;-1.786;2022-09-02T04:31:42;14.73;;;13.00;;
16975;SDS011;8604;48.148;-1.786;2022-09-02T04:34:11;17.63;;;15.07;;
16975;SDS011;8604;48.148;-1.786;2022-09-02T04:36:42;20.63;;;16.53;;
16975;SDS011;8604;48.148;-1.786;2022-09-02T04:39:11;20.27;;;15.60;;
16975;SDS011;8604;48.148;-1.786;2022-09-02T04:41:41;16.10;;;14.40;;
16975;SDS011;8604;48.148;-1.786;2022-09-02T04:44:11;18.77;;;13.77;;
16975;SDS011;8604;48.148;-1.786;2022-09-02T04:46:55;17.43;;;14.07;;
16975;SDS011;8604;48.148;-1.786;2022-09-02T04:49:24;19.67;;;17.07;;
16975;SDS011;8604;48.148;-1.786;2022-09-02T04:51:52;19.83;;;16.53;;
16975;SDS011;8604;48.148;-1.786;2022-09-02T04:54:22;15.17;;;13.57;;
16975;SDS011;8604;48.148;-1.786;2022-09-02T04:56:55;16.10;;;14.40;;
16975;SDS011;8604;48.148;-1.786;2022-09-02T04:59:24;15.77;;;14.07;;
16975;SDS011;8604;48.148;-1.786;2022-09-02T05:02:03;19.43;;;15.27;;
16975;SDS011;8604;48.148;-1.786;2022-09-02T05:04:33;19.30;;;15.43;;
16975;SDS011;8604;48.148;-1.786;2022-09-02T05:07:06;15.63;;;13.13;;
16975;SDS011;8604;48.148;-1.786;2022-09-02T05:09:41;17.10;;;13.63;;
16975;SDS011;8604;48.148;-1.786;2022-09-02T05:12:11;14.63;;;12.30;;
16975;SDS011;8604;48.148;-1.786;2022-09-02T05:14:48;13.63;;;11.57;;
16975;SDS011;8604;48.148;-1.786;2022-09-02T05:17:19;14.83;;;12.97;;
16975;SDS011;8604;48.148;-1.786;2022-09-02T05:19:47;14.77;;;12.03;;
16975;SDS011;8604;48.148;-1.786;2022-09-02T05:22:16;13.93;;;12.53;;
16975;SDS011;8604;48.148;-1.786;2022-09-02T05:24:45;17.13;;;15.37;;
16975;SDS011;8604;48.148;-1.786;2022-09-02T05:27:15;14.00;;;12.50;;
16975;SDS011;8604;48.148;-1.786;2022-09-02T05:29:45;13.70;;;12.37;;
16975;SDS011;8604;48.148;-1.786;2022-09-02T05:32:17;12.47;;;11.17;;
16975;SDS011;8604;48.148;-1.786;2022-09-02T05:34:47;13.47;;;11.77;;
16975;SDS011;8604;48.148;-1.786;2022-09-02T05:37:16;12.27;;;10.67;;
16975;SDS011;8604;48.148;-1.786;2022-09-02T05:39:45;13.43;;;11.70;;
16975;SDS011;8604;48.148;-1.786;2022-09-02T05:42:16;13.53;;;12.13;;
16975;SDS011;8604;48.148;-1.786;2022-09-02T05:44:49;13.73;;;12.33;;
16975;SDS011;8604;48.148;-1.786;2022-09-02T05:47:22;13.27;;;11.90;;
16975;SDS011;8604;48.148;-1.786;2022-09-02T05:49:59;12.87;;;11.47;;
16975;SDS011;8604;48.148;-1.786;2022-09-02T05:53:20;13.60;;;12.03;;
16975;SDS011;8604;48.148;-1.786;2022-09-02T05:56:06;13.90;;;12.43;;
16975;SDS011;8604;48.148;-1.786;2022-09-02T06:01:55;17.60;;;15.80;;
16975;SDS011;8604;48.148;-1.786;2022-09-02T06:04:29;15.17;;;13.63;;
16975;SDS011;8604;48.148;-1.786;2022-09-02T06:07:27;14.57;;;13.03;;
16975;SDS011;8604;48.148;-1.786;2022-09-02T06:10:09;15.80;;;14.20;;
16975;SDS011;8604;48.148;-1.786;2022-09-02T06:12:45;19.73;;;17.73;;
16975;SDS011;8604;48.148;-1.786;2022-09-02T06:19:24;19.37;;;16.27;;
16975;SDS011;8604;48.148;-1.786;2022-09-02T06:22:20;20.80;;;18.23;;
16975;SDS011;8604;48.148;-1.786;2022-09-02T06:25:45;24.30;;;19.10;;
16975;SDS011;8604;48.148;-1.786;2022-09-02T06:31:29;26.37;;;20.37;;
16975;SDS011;8604;48.148;-1.786;2022-09-02T06:34:25;20.10;;;18.00;;
16975;SDS011;8604;48.148;-1.786;2022-09-02T06:37:34;20.27;;;16.63;;
16975;SDS011;8604;48.148;-1.786;2022-09-02T06:43:43;21.30;;;16.37;;
16975;SDS011;8604;48.148;-1.786;2022-09-02T06:49:25;20.93;;;17.63;;
16975;SDS011;8604;48.148;-1.786;2022-09-02T06:51:57;19.07;;;16.90;;
16975;SDS011;8604;48.148;-1.786;2022-09-02T06:54:30;20.53;;;18.33;;
16975;SDS011;8604;48.148;-1.786;2022-09-02T06:57:10;19.97;;;17.73;;
16975;SDS011;8604;48.148;-1.786;2022-09-02T06:59:40;21.60;;;19.40;;
16975;SDS011;8604;48.148;-1.786;2022-09-02T07:02:12;19.50;;;17.40;;
16975;SDS011;8604;48.148;-1.786;2022-09-02T07:05:07;19.43;;;17.33;;
16975;SDS011;8604;48.148;-1.786;2022-09-02T07:07:42;20.37;;;18.20;;
16975;SDS011;8604;48.148;-1.786;2022-09-02T07:10:15;19.93;;;17.83;;
16975;SDS011;8604;48.148;-1.786;2022-09-02T07:12:49;22.23;;;19.93;;
16975;SDS011;8604;48.148;-1.786;2022-09-02T07:15:17;21.10;;;18.80;;
16975;SDS011;8604;48.148;-1.786;2022-09-02T07:17:48;20.90;;;18.67;;
16975;SDS011;8604;48.148;-1.786;2022-09-02T07:20:26;22.13;;;19.83;;
16975;SDS011;8604;48.148;-1.786;2022-09-02T07:22:58;22.47;;;18.53;;
16975;SDS011;8604;48.148;-1.786;2022-09-02T07:25:30;20.37;;;18.13;;
16975;SDS011;8604;48.148;-1.786;2022-09-02T07:27:59;23.57;;;20.70;;
16975;SDS011;8604;48.148;-1.786;2022-09-02T07:30:43;21.73;;;19.40;;
16975;SDS011;8604;48.148;-1.786;2022-09-02T07:33:16;21.60;;;19.40;;
16975;SDS011;8604;48.148;-1.786;2022-09-02T07:35:45;19.57;;;17.57;;
16975;SDS011;8604;48.148;-1.786;2022-09-02T07:38:16;25.43;;;22.20;;
16975;SDS011;8604;48.148;-1.786;2022-09-02T07:40:45;20.30;;;18.10;;
16975;SDS011;8604;48.148;-1.786;2022-09-02T07:43:15;24.23;;;19.30;;
16975;SDS011;8604;48.148;-1.786;2022-09-02T07:45:44;30.83;;;24.03;;
16975;SDS011;8604;48.148;-1.786;2022-09-02T07:48:23;37.50;;;27.73;;
16975;SDS011;8604;48.148;-1.786;2022-09-02T07:50:52;33.60;;;25.47;;
16975;SDS011;8604;48.148;-1.786;2022-09-02T07:53:22;40.73;;;29.47;;
16975;SDS011;8604;48.148;-1.786;2022-09-02T07:56:03;40.10;;;28.37;;
16975;SDS011;8604;48.148;-1.786;2022-09-02T07:58:32;42.77;;;29.80;;
16975;SDS011;8604;48.148;-1.786;2022-09-02T08:01:02;44.70;;;31.80;;
16975;SDS011;8604;48.148;-1.786;2022-09-02T08:03:33;41.67;;;30.10;;
16975;SDS011;8604;48.148;-1.786;2022-09-02T08:06:09;36.63;;;29.13;;
16975;SDS011;8604;48.148;-1.786;2022-09-02T08:08:38;39.77;;;31.93;;
16975;SDS011;8604;48.148;-1.786;2022-09-02T08:11:07;33.67;;;28.53;;
16975;SDS011;8604;48.148;-1.786;2022-09-02T08:13:36;31.67;;;26.57;;
16975;SDS011;8604;48.148;-1.786;2022-09-02T08:16:25;28.37;;;24.20;;
16975;SDS011;8604;48.148;-1.786;2022-09-02T08:18:56;25.17;;;22.43;;
16975;SDS011;8604;48.148;-1.786;2022-09-02T08:21:38;25.77;;;23.07;;
16975;SDS011;8604;48.148;-1.786;2022-09-02T08:24:06;23.00;;;20.50;;
16975;SDS011;8604;48.148;-1.786;2022-09-02T08:26:35;22.83;;;20.33;;
16975;SDS011;8604;48.148;-1.786;2022-09-02T08:29:04;22.83;;;19.63;;
16975;SDS011;8604;48.148;-1.786;2022-09-02T08:31:35;20.07;;;17.87;;
16975;SDS011;8604;48.148;-1.786;2022-09-02T08:34:05;20.93;;;18.63;;
16975;SDS011;8604;48.148;-1.786;2022-09-02T08:36:34;20.63;;;18.20;;
16975;SDS011;8604;48.148;-1.786;2022-09-02T08:39:03;18.77;;;16.77;;
16975;SDS011;8604;48.148;-1.786;2022-09-02T08:41:32;22.03;;;19.10;;
16975;SDS011;8604;48.148;-1.786;2022-09-02T08:44:09;20.13;;;17.90;;
16975;SDS011;8604;48.148;-1.786;2022-09-02T08:46:38;17.87;;;15.93;;
16975;SDS011;8604;48.148;-1.786;2022-09-02T08:49:10;22.40;;;20.03;;
16975;SDS011;8604;48.148;-1.786;2022-09-02T08:51:45;21.33;;;19.23;;
16975;SDS011;8604;48.148;-1.786;2022-09-02T08:54:19;18.13;;;16.20;;
16975;SDS011;8604;48.148;-1.786;2022-09-02T08:56:52;17.63;;;15.73;;
16975;SDS011;8604;48.148;-1.786;2022-09-02T08:59:22;19.13;;;15.53;;
16975;SDS011;8604;48.148;-1.786;2022-09-02T09:01:53;22.50;;;20.20;;
16975;SDS011;8604;48.148;-1.786;2022-09-02T09:04:33;21.30;;;19.00;;
16975;SDS011;8604;48.148;-1.786;2022-09-02T09:07:17;20.83;;;18.60;;
16975;SDS011;8604;48.148;-1.786;2022-09-02T09:12:49;19.90;;;17.90;;
16975;SDS011;8604;48.148;-1.786;2022-09-02T09:15:32;22.93;;;20.53;;
16975;SDS011;8604;48.148;-1.786;2022-09-02T09:18:08;22.23;;;19.97;;
16975;SDS011;8604;48.148;-1.786;2022-09-02T09:20:42;23.90;;;20.90;;
16975;SDS011;8604;48.148;-1.786;2022-09-02T09:23:18;22.97;;;20.57;;
16975;SDS011;8604;48.148;-1.786;2022-09-02T09:26:04;17.83;;;16.03;;
16975;SDS011;8604;48.148;-1.786;2022-09-02T09:28:39;19.13;;;17.10;;
16975;SDS011;8604;48.148;-1.786;2022-09-02T09:31:09;18.63;;;16.63;;
16975;SDS011;8604;48.148;-1.786;2022-09-02T09:36:47;22.70;;;20.27;;
16975;SDS011;8604;48.148;-1.786;2022-09-02T09:39:20;20.37;;;17.57;;
16975;SDS011;8604;48.148;-1.786;2022-09-02T09:41:51;19.87;;;17.73;;
16975;SDS011;8604;48.148;-1.786;2022-09-02T09:44:34;20.77;;;18.57;;
16975;SDS011;8604;48.148;-1.786;2022-09-02T09:47:15;19.17;;;17.03;;
16975;SDS011;8604;48.148;-1.786;2022-09-02T09:49:46;19.33;;;17.40;;
16975;SDS011;8604;48.148;-1.786;2022-09-02T09:52:25;18.50;;;16.60;;
16975;SDS011;8604;48.148;-1.786;2022-09-02T09:55:13;17.83;;;15.13;;
16975;SDS011;8604;48.148;-1.786;2022-09-02T09:57:51;18.53;;;16.53;;
16975;SDS011;8604;48.148;-1.786;2022-09-02T10:00:20;16.63;;;14.93;;
16975;SDS011;8604;48.148;-1.786;2022-09-02T10:02:54;16.40;;;14.67;;
16975;SDS011;8604;48.148;-1.786;2022-09-02T10:05:32;20.60;;;18.47;;
16975;SDS011;8604;48.148;-1.786;2022-09-02T10:08:04;16.67;;;14.97;;
16975;SDS011;8604;48.148;-1.786;2022-09-02T10:10:53;17.73;;;15.93;;
16975;SDS011;8604;48.148;-1.786;2022-09-02T10:13:24;15.07;;;13.47;;
16975;SDS011;8604;48.148;-1.786;2022-09-02T10:19:03;15.20;;;13.60;;
16975;SDS011;8604;48.148;-1.786;2022-09-02T10:21:43;15.77;;;14.13;;
16975;SDS011;8604;48.148;-1.786;2022-09-02T10:24:38;17.03;;;15.33;;
16975;SDS011;8604;48.148;-1.786;2022-09-02T10:27:20;16.63;;;14.70;;
16975;SDS011;8604;48.148;-1.786;2022-09-02T10:30:03;17.13;;;15.33;;
16975;SDS011;8604;48.148;-1.786;2022-09-02T10:32:37;17.37;;;15.37;;
16975;SDS011;8604;48.148;-1.786;2022-09-02T10:35:27;17.40;;;15.70;;
16975;SDS011;8604;48.148;-1.786;2022-09-02T10:38:07;18.30;;;14.37;;
16975;SDS011;8604;48.148;-1.786;2022-09-02T10:40:47;13.20;;;11.80;;
16975;SDS011;8604;48.148;-1.786;2022-09-02T10:43:22;17.07;;;15.33;;
16975;SDS011;8604;48.148;-1.786;2022-09-02T10:45:59;17.53;;;15.73;;
16975;SDS011;8604;48.148;-1.786;2022-09-02T10:48:35;16.77;;;15.17;;
16975;SDS011;8604;48.148;-1.786;2022-09-02T10:51:14;13.80;;;12.40;;
16975;SDS011;8604;48.148;-1.786;2022-09-02T10:53:53;13.37;;;10.83;;
16975;SDS011;8604;48.148;-1.786;2022-09-02T10:56:32;13.73;;;12.20;;
16975;SDS011;8604;48.148;-1.786;2022-09-02T10:59:09;15.70;;;14.10;;
16975;SDS011;8604;48.148;-1.786;2022-09-02T11:01:46;12.32;;;11.02;;
16975;SDS011;8604;48.148;-1.786;2022-09-02T11:04:21;13.07;;;11.77;;
16975;SDS011;8604;48.148;-1.786;2022-09-02T11:06:57;14.57;;;13.18;;
16975;SDS011;8604;48.148;-1.786;2022-09-02T11:09:31;11.63;;;10.23;;
16975;SDS011;8604;48.148;-1.786;2022-09-02T11:12:06;12.13;;;10.82;;
16975;SDS011;8604;48.148;-1.786;2022-09-02T11:14:39;13.63;;;12.33;;
16975;SDS011;8604;48.148;-1.786;2022-09-02T11:17:21;13.57;;;12.17;;
16975;SDS011;8604;48.148;-1.786;2022-09-02T11:19:57;12.98;;;11.50;;
16975;SDS011;8604;48.148;-1.786;2022-09-02T11:22:33;17.15;;;15.35;;
16975;SDS011;8604;48.148;-1.786;2022-09-02T11:25:09;16.35;;;13.57;;
16975;SDS011;8604;48.148;-1.786;2022-09-02T11:27:45;15.03;;;13.40;;
16975;SDS011;8604;48.148;-1.786;2022-09-02T11:30:21;13.20;;;11.75;;
16975;SDS011;8604;48.148;-1.786;2022-09-02T11:35:52;13.93;;;11.50;;
16975;SDS011;8604;48.148;-1.786;2022-09-02T11:38:26;14.30;;;12.80;;
16975;SDS011;8604;48.148;-1.786;2022-09-02T11:41:11;13.70;;;12.30;;
16975;SDS011;8604;48.148;-1.786;2022-09-02T11:44:09;12.43;;;10.43;;
16975;SDS011;8604;48.148;-1.786;2022-09-02T11:47:22;11.77;;;10.25;;
16975;SDS011;8604;48.148;-1.786;2022-09-02T11:50:15;10.48;;;8.90;;
16975;SDS011;8604;48.148;-1.786;2022-09-02T11:53:10;10.37;;;8.40;;
16975;SDS011;8604;48.148;-1.786;2022-09-02T11:55:47;11.48;;;10.05;;
16975;SDS011;8604;48.148;-1.786;2022-09-02T11:58:29;9.98;;;8.65;;
16975;SDS011;8604;48.148;-1.786;2022-09-02T12:01:17;10.75;;;9.35;;
16975;SDS011;8604;48.148;-1.786;2022-09-02T12:03:52;12.95;;;11.38;;
16975;SDS011;8604;48.148;-1.786;2022-09-02T12:09:50;10.38;;;8.55;;
16975;SDS011;8604;48.148;-1.786;2022-09-02T12:15:29;9.95;;;7.95;;
16975;SDS011;8604;48.148;-1.786;2022-09-02T12:21:03;10.05;;;7.95;;
16975;SDS011;8604;48.148;-1.786;2022-09-02T12:27:08;9.10;;;7.50;;
16975;SDS011;8604;48.148;-1.786;2022-09-02T12:29:53;10.37;;;6.70;;
16975;SDS011;8604;48.148;-1.786;2022-09-02T12:35:53;9.82;;;7.72;;
16975;SDS011;8604;48.148;-1.786;2022-09-02T12:38:25;10.10;;;9.00;;
16975;SDS011;8604;48.148;-1.786;2022-09-02T12:43:50;9.75;;;7.45;;
16975;SDS011;8604;48.148;-1.786;2022-09-02T12:46:35;11.27;;;7.80;;
16975;SDS011;8604;48.148;-1.786;2022-09-02T12:49:20;7.90;;;6.07;;
16975;SDS011;8604;48.148;-1.786;2022-09-02T12:51:57;7.72;;;5.80;;
16975;SDS011;8604;48.148;-1.786;2022-09-02T12:54:32;7.57;;;6.15;;
16975;SDS011;8604;48.148;-1.786;2022-09-02T12:57:08;8.32;;;6.70;;
16975;SDS011;8604;48.148;-1.786;2022-09-02T12:59:38;7.93;;;4.97;;
16975;SDS011;8604;48.148;-1.786;2022-09-02T13:05:15;6.90;;;5.72;;
16975;SDS011;8604;48.148;-1.786;2022-09-02T13:17:19;7.80;;;5.00;;
16975;SDS011;8604;48.148;-1.786;2022-09-02T13:20:12;5.95;;;3.88;;
16975;SDS011;8604;48.148;-1.786;2022-09-02T13:26:09;4.97;;;3.40;;
16975;SDS011;8604;48.148;-1.786;2022-09-02T13:35:28;25.43;;;6.77;;
16975;SDS011;8604;48.148;-1.786;2022-09-02T13:37:57;18.33;;;5.27;;
16975;SDS011;8604;48.148;-1.786;2022-09-02T13:40:29;8.67;;;3.13;;
16975;SDS011;8604;48.148;-1.786;2022-09-02T13:43:00;8.00;;;3.33;;
16975;SDS011;8604;48.148;-1.786;2022-09-02T13:45:31;7.77;;;3.20;;
16975;SDS011;8604;48.148;-1.786;2022-09-02T13:48:04;6.43;;;3.30;;
16975;SDS011;8604;48.148;-1.786;2022-09-02T13:50:35;6.53;;;3.07;;
16975;SDS011;8604;48.148;-1.786;2022-09-02T13:53:09;4.30;;;2.10;;
16975;SDS011;8604;48.148;-1.786;2022-09-02T13:56:04;4.97;;;2.63;;
16975;SDS011;8604;48.148;-1.786;2022-09-02T13:58:35;6.50;;;2.33;;
16975;SDS011;8604;48.148;-1.786;2022-09-02T14:01:21;7.13;;;3.20;;
16975;SDS011;8604;48.148;-1.786;2022-09-02T14:03:56;5.77;;;2.80;;
16975;SDS011;8604;48.148;-1.786;2022-09-02T14:06:27;5.93;;;2.93;;
16975;SDS011;8604;48.148;-1.786;2022-09-02T14:08:57;4.67;;;2.67;;
16975;SDS011;8604;48.148;-1.786;2022-09-02T14:11:28;4.23;;;2.90;;
16975;SDS011;8604;48.148;-1.786;2022-09-02T14:14:05;5.70;;;3.37;;
16975;SDS011;8604;48.148;-1.786;2022-09-02T14:16:34;6.93;;;3.30;;
16975;SDS011;8604;48.148;-1.786;2022-09-02T14:19:21;5.70;;;3.87;;
16975;SDS011;8604;48.148;-1.786;2022-09-02T14:22:18;5.70;;;3.73;;
16975;SDS011;8604;48.148;-1.786;2022-09-02T14:24:50;5.57;;;3.87;;
16975;SDS011;8604;48.148;-1.786;2022-09-02T14:27:20;5.93;;;3.60;;
16975;SDS011;8604;48.148;-1.786;2022-09-02T14:29:52;6.90;;;4.40;;
16975;SDS011;8604;48.148;-1.786;2022-09-02T14:38:56;7.10;;;4.20;;
16975;SDS011;8604;48.148;-1.786;2022-09-02T14:41:42;8.50;;;4.20;;
16975;SDS011;8604;48.148;-1.786;2022-09-02T14:44:14;8.53;;;4.17;;
16975;SDS011;8604;48.148;-1.786;2022-09-02T14:46:53;6.10;;;3.37;;
16975;SDS011;8604;48.148;-1.786;2022-09-02T14:49:28;6.00;;;3.60;;
16975;SDS011;8604;48.148;-1.786;2022-09-02T14:52:02;11.27;;;4.60;;
16975;SDS011;8604;48.148;-1.786;2022-09-02T14:54:45;7.97;;;4.40;;
16975;SDS011;8604;48.148;-1.786;2022-09-02T14:57:20;14.07;;;5.63;;
16975;SDS011;8604;48.148;-1.786;2022-09-02T14:59:50;8.23;;;4.43;;
16975;SDS011;8604;48.148;-1.786;2022-09-02T15:02:22;7.40;;;3.93;;
16975;SDS011;8604;48.148;-1.786;2022-09-02T15:05:10;7.57;;;4.00;;
16975;SDS011;8604;48.148;-1.786;2022-09-02T15:07:46;7.07;;;4.07;;
16975;SDS011;8604;48.148;-1.786;2022-09-02T15:10:15;6.23;;;4.00;;
16975;SDS011;8604;48.148;-1.786;2022-09-02T15:12:46;10.60;;;4.67;;
16975;SDS011;8604;48.148;-1.786;2022-09-02T15:15:20;6.77;;;3.60;;
16975;SDS011;8604;48.148;-1.786;2022-09-02T15:17:49;7.43;;;4.00;;
16975;SDS011;8604;48.148;-1.786;2022-09-02T15:20:18;6.73;;;3.40;;
16975;SDS011;8604;48.148;-1.786;2022-09-02T15:22:51;4.73;;;3.10;;
16975;SDS011;8604;48.148;-1.786;2022-09-02T15:25:23;3.90;;;2.93;;
16975;SDS011;8604;48.148;-1.786;2022-09-02T15:27:52;5.90;;;2.70;;
16975;SDS011;8604;48.148;-1.786;2022-09-02T15:30:22;6.57;;;3.07;;
16975;SDS011;8604;48.148;-1.786;2022-09-02T15:35:45;6.57;;;3.33;;
16975;SDS011;8604;48.148;-1.786;2022-09-02T15:38:20;6.97;;;3.17;;
16975;SDS011;8604;48.148;-1.786;2022-09-02T15:40:48;4.40;;;2.80;;
16975;SDS011;8604;48.148;-1.786;2022-09-02T15:43:17;3.47;;;2.30;;
16975;SDS011;8604;48.148;-1.786;2022-09-02T15:45:46;3.90;;;2.37;;
16975;SDS011;8604;48.148;-1.786;2022-09-02T15:48:15;5.03;;;2.40;;
16975;SDS011;8604;48.148;-1.786;2022-09-02T15:50:43;4.80;;;2.53;;
16975;SDS011;8604;48.148;-1.786;2022-09-02T15:53:12;4.27;;;2.70;;
16975;SDS011;8604;48.148;-1.786;2022-09-02T15:55:43;4.63;;;2.50;;
16975;SDS011;8604;48.148;-1.786;2022-09-02T15:58:11;4.00;;;2.43;;
16975;SDS011;8604;48.148;-1.786;2022-09-02T16:00:40;3.63;;;2.40;;
16975;SDS011;8604;48.148;-1.786;2022-09-02T16:03:15;4.17;;;2.77;;
16975;SDS011;8604;48.148;-1.786;2022-09-02T16:05:43;3.30;;;2.40;;
16975;SDS011;8604;48.148;-1.786;2022-09-02T16:08:12;4.47;;;2.70;;
16975;SDS011;8604;48.148;-1.786;2022-09-02T16:10:48;5.47;;;3.00;;
16975;SDS011;8604;48.148;-1.786;2022-09-02T16:13:16;5.60;;;3.03;;
16975;SDS011;8604;48.148;-1.786;2022-09-02T16:15:46;6.57;;;3.10;;
16975;SDS011;8604;48.148;-1.786;2022-09-02T16:18:16;9.70;;;3.27;;
16975;SDS011;8604;48.148;-1.786;2022-09-02T16:23:33;12.37;;;3.67;;
16975;SDS011;8604;48.148;-1.786;2022-09-02T16:26:12;9.97;;;3.30;;
16975;SDS011;8604;48.148;-1.786;2022-09-02T16:28:47;9.37;;;3.77;;
16975;SDS011;8604;48.148;-1.786;2022-09-02T16:31:16;6.33;;;3.03;;
16975;SDS011;8604;48.148;-1.786;2022-09-02T16:33:59;4.20;;;2.87;;
16975;SDS011;8604;48.148;-1.786;2022-09-02T16:36:30;6.83;;;3.70;;